sensor_id;sensor_type;location;lat;lon;timestamp;pressure;altitude;pressure_sealevel;temperature
59339;BMP280;45117;50.960;5.500;2023-05-16T00:02:04;100939.38;;;9.39
59339;BMP280;45117;50.960;5.500;2023-05-16T00:04:30;100934.78;;;9.39
59339;BMP280;45117;50.960;5.500;2023-05-16T00:06:59;100935.94;;;9.42
59339;BMP280;45117;50.960;5.500;2023-05-16T00:09:25;100942.81;;;9.36
59339;BMP280;45117;50.960;5.500;2023-05-16T00:11:52;100946.28;;;9.40
59339;BMP280;45117;50.960;5.500;2023-05-16T00:14:18;100947.03;;;9.37
59339;BMP280;45117;50.960;5.500;2023-05-16T00:16:46;100946.28;;;9.40
59339;BMP280;45117;50.960;5.500;2023-05-16T00:19:12;100950.09;;;9.39
59339;BMP280;45117;50.960;5.500;2023-05-16T00:21:39;100948.94;;;9.36
59339;BMP280;45117;50.960;5.500;2023-05-16T00:24:07;100943.97;;;9.35
59339;BMP280;45117;50.960;5.500;2023-05-16T00:26:34;100945.50;;;9.39
59339;BMP280;45117;50.960;5.500;2023-05-16T00:29:00;100943.56;;;9.36
59339;BMP280;45117;50.960;5.500;2023-05-16T00:31:27;100947.03;;;9.40
59339;BMP280;45117;50.960;5.500;2023-05-16T00:33:53;100938.59;;;9.35
59339;BMP280;45117;50.960;5.500;2023-05-16T00:36:20;100947.41;;;9.32
59339;BMP280;45117;50.960;5.500;2023-05-16T00:38:46;100943.94;;;9.28
59339;BMP280;45117;50.960;5.500;2023-05-16T00:41:15;100937.81;;;9.23
59339;BMP280;45117;50.960;5.500;2023-05-16T00:43:42;100943.13;;;9.16
59339;BMP280;45117;50.960;5.500;2023-05-16T00:46:09;100943.19;;;9.23
59339;BMP280;45117;50.960;5.500;2023-05-16T00:48:35;100935.88;;;9.10
59339;BMP280;45117;50.960;5.500;2023-05-16T00:51:02;100949.28;;;9.20
59339;BMP280;45117;50.960;5.500;2023-05-16T00:53:33;100947.34;;;9.17
59339;BMP280;45117;50.960;5.500;2023-05-16T00:56:00;100953.06;;;9.12
59339;BMP280;45117;50.960;5.500;2023-05-16T00:58:29;100953.09;;;9.19
59339;BMP280;45117;50.960;5.500;2023-05-16T01:00:56;100950.81;;;9.14
59339;BMP280;45117;50.960;5.500;2023-05-16T01:03:23;100955.00;;;9.15
59339;BMP280;45117;50.960;5.500;2023-05-16T01:05:49;100959.59;;;9.11
59339;BMP280;45117;50.960;5.500;2023-05-16T01:08:17;100946.19;;;9.11
59339;BMP280;45117;50.960;5.500;2023-05-16T01:10:51;100960.00;;;9.13
59339;BMP280;45117;50.960;5.500;2023-05-16T01:13:23;100953.84;;;9.09
59339;BMP280;45117;50.960;5.500;2023-05-16T01:15:59;100957.66;;;9.08
59339;BMP280;45117;50.960;5.500;2023-05-16T01:18:36;100959.97;;;9.10
59339;BMP280;45117;50.960;5.500;2023-05-16T01:21:11;100952.28;;;9.08
59339;BMP280;45117;50.960;5.500;2023-05-16T01:23:50;100955.34;;;9.03
59339;BMP280;45117;50.960;5.500;2023-05-16T01:26:20;100951.53;;;9.04
59339;BMP280;45117;50.960;5.500;2023-05-16T01:28:48;100959.91;;;8.99
59339;BMP280;45117;50.960;5.500;2023-05-16T01:31:15;100954.56;;;8.95
59339;BMP280;45117;50.960;5.500;2023-05-16T01:33:42;100953.41;;;8.96
59339;BMP280;45117;50.960;5.500;2023-05-16T01:36:14;100962.97;;;8.94
59339;BMP280;45117;50.960;5.500;2023-05-16T01:38:49;100951.50;;;8.93
59339;BMP280;45117;50.960;5.500;2023-05-16T01:41:22;100965.22;;;8.88
59339;BMP280;45117;50.960;5.500;2023-05-16T01:43:51;100958.31;;;8.87
59339;BMP280;45117;50.960;5.500;2023-05-16T01:46:22;100961.00;;;8.87
59339;BMP280;45117;50.960;5.500;2023-05-16T01:48:52;100971.31;;;8.82
59339;BMP280;45117;50.960;5.500;2023-05-16T01:51:21;100971.69;;;8.80
59339;BMP280;45117;50.960;5.500;2023-05-16T01:53:48;100977.41;;;8.75
59339;BMP280;45117;50.960;5.500;2023-05-16T01:56:16;100977.78;;;8.77
59339;BMP280;45117;50.960;5.500;2023-05-16T01:58:44;100982.75;;;8.75
59339;BMP280;45117;50.960;5.500;2023-05-16T02:01:12;100983.13;;;8.74
59339;BMP280;45117;50.960;5.500;2023-05-16T02:03:38;100981.22;;;8.74
59339;BMP280;45117;50.960;5.500;2023-05-16T02:06:05;100987.31;;;8.71
59339;BMP280;45117;50.960;5.500;2023-05-16T02:08:32;100988.84;;;8.72
59339;BMP280;45117;50.960;5.500;2023-05-16T02:10:58;100982.34;;;8.69
59339;BMP280;45117;50.960;5.500;2023-05-16T02:13:25;100991.50;;;8.68
59339;BMP280;45117;50.960;5.500;2023-05-16T02:15:53;100996.44;;;8.66
59339;BMP280;45117;50.960;5.500;2023-05-16T02:18:19;100992.59;;;8.60
59339;BMP280;45117;50.960;5.500;2023-05-16T02:20:47;100998.34;;;8.59
59339;BMP280;45117;50.960;5.500;2023-05-16T02:23:14;101005.56;;;8.58
59339;BMP280;45117;50.960;5.500;2023-05-16T02:25:40;101006.66;;;8.50
59339;BMP280;45117;50.960;5.500;2023-05-16T02:28:07;100999.78;;;8.49
59339;BMP280;45117;50.960;5.500;2023-05-16T02:30:33;101008.56;;;8.43
59339;BMP280;45117;50.960;5.500;2023-05-16T02:33:01;101008.50;;;8.39
59339;BMP280;45117;50.960;5.500;2023-05-16T02:35:28;101006.19;;;8.34
59339;BMP280;45117;50.960;5.500;2023-05-16T02:37:55;101010.75;;;8.37
59339;BMP280;45117;50.960;5.500;2023-05-16T02:40:21;101012.66;;;8.33
59339;BMP280;45117;50.960;5.500;2023-05-16T02:42:48;101018.38;;;8.31
59339;BMP280;45117;50.960;5.500;2023-05-16T02:45:14;101021.41;;;8.26
59339;BMP280;45117;50.960;5.500;2023-05-16T02:47:41;101025.59;;;8.24
59339;BMP280;45117;50.960;5.500;2023-05-16T02:50:09;101022.88;;;8.20
59339;BMP280;45117;50.960;5.500;2023-05-16T02:52:36;101026.31;;;8.21
59339;BMP280;45117;50.960;5.500;2023-05-16T02:55:03;101034.28;;;8.13
59339;BMP280;45117;50.960;5.500;2023-05-16T02:57:30;101026.22;;;8.10
59339;BMP280;45117;50.960;5.500;2023-05-16T02:59:56;101028.91;;;8.10
59339;BMP280;45117;50.960;5.500;2023-05-16T03:02:23;101033.81;;;8.08
59339;BMP280;45117;50.960;5.500;2023-05-16T03:04:49;101033.81;;;8.08
59339;BMP280;45117;50.960;5.500;2023-05-16T03:07:17;101034.25;;;8.10
59339;BMP280;45117;50.960;5.500;2023-05-16T03:09:44;101037.63;;;8.03
59339;BMP280;45117;50.960;5.500;2023-05-16T03:12:10;101038.75;;;8.02
59339;BMP280;45117;50.960;5.500;2023-05-16T03:14:37;101048.69;;;8.02
59339;BMP280;45117;50.960;5.500;2023-05-16T03:17:03;101051.72;;;8.04
59339;BMP280;45117;50.960;5.500;2023-05-16T03:19:30;101047.09;;;7.97
59339;BMP280;45117;50.960;5.500;2023-05-16T03:21:56;101044.81;;;7.99
59339;BMP280;45117;50.960;5.500;2023-05-16T03:24:24;101050.16;;;7.96
59339;BMP280;45117;50.960;5.500;2023-05-16T03:26:50;101050.50;;;7.94
59339;BMP280;45117;50.960;5.500;2023-05-16T03:29:18;101053.91;;;7.91
59339;BMP280;45117;50.960;5.500;2023-05-16T03:31:45;101050.75;;;7.82
59339;BMP280;45117;50.960;5.500;2023-05-16T03:34:11;101059.06;;;7.73
59339;BMP280;45117;50.960;5.500;2023-05-16T03:36:38;101056.34;;;7.66
59339;BMP280;45117;50.960;5.500;2023-05-16T03:39:04;101061.94;;;7.57
59339;BMP280;45117;50.960;5.500;2023-05-16T03:41:33;101063.31;;;7.48
59339;BMP280;45117;50.960;5.500;2023-05-16T03:43:59;101060.56;;;7.41
59339;BMP280;45117;50.960;5.500;2023-05-16T03:46:26;101063.56;;;7.36
59339;BMP280;45117;50.960;5.500;2023-05-16T03:48:52;101065.78;;;7.30
59339;BMP280;45117;50.960;5.500;2023-05-16T03:51:19;101066.56;;;7.30
59339;BMP280;45117;50.960;5.500;2023-05-16T03:53:45;101069.53;;;7.25
59339;BMP280;45117;50.960;5.500;2023-05-16T03:56:12;101076.75;;;7.21
59339;BMP280;45117;50.960;5.500;2023-05-16T03:58:40;101075.97;;;7.21
59339;BMP280;45117;50.960;5.500;2023-05-16T04:01:06;101067.84;;;7.14
59339;BMP280;45117;50.960;5.500;2023-05-16T04:03:33;101080.38;;;7.10
59339;BMP280;45117;50.960;5.500;2023-05-16T04:06:00;101083.00;;;7.06
59339;BMP280;45117;50.960;5.500;2023-05-16T04:08:26;101089.09;;;7.07
59339;BMP280;45117;50.960;5.500;2023-05-16T04:10:53;101089.84;;;7.03
59339;BMP280;45117;50.960;5.500;2023-05-16T04:13:20;101088.00;;;7.08
59339;BMP280;45117;50.960;5.500;2023-05-16T04:15:48;101089.97;;;7.14
59339;BMP280;45117;50.960;5.500;2023-05-16T04:18:14;101086.53;;;7.14
59339;BMP280;45117;50.960;5.500;2023-05-16T04:20:41;101096.91;;;7.19
59339;BMP280;45117;50.960;5.500;2023-05-16T04:23:08;101096.97;;;7.22
59339;BMP280;45117;50.960;5.500;2023-05-16T04:25:36;101090.84;;;7.22
59339;BMP280;45117;50.960;5.500;2023-05-16T04:28:02;101098.50;;;7.23
59339;BMP280;45117;50.960;5.500;2023-05-16T04:30:29;101103.88;;;7.27
59339;BMP280;45117;50.960;5.500;2023-05-16T04:32:57;101104.38;;;7.33
59339;BMP280;45117;50.960;5.500;2023-05-16T04:35:24;101108.22;;;7.35
59339;BMP280;45117;50.960;5.500;2023-05-16T04:37:52;101109.00;;;7.39
59339;BMP280;45117;50.960;5.500;2023-05-16T04:40:18;101109.72;;;7.36
59339;BMP280;45117;50.960;5.500;2023-05-16T04:42:45;101115.88;;;7.40
59339;BMP280;45117;50.960;5.500;2023-05-16T04:45:11;101113.63;;;7.42
59339;BMP280;45117;50.960;5.500;2023-05-16T04:47:38;101114.91;;;7.52
59339;BMP280;45117;50.960;5.500;2023-05-16T04:50:08;101122.28;;;7.58
59339;BMP280;45117;50.960;5.500;2023-05-16T04:52:34;101119.72;;;7.69
59339;BMP280;45117;50.960;5.500;2023-05-16T04:55:02;101127.09;;;7.79
59339;BMP280;45117;50.960;5.500;2023-05-16T04:57:29;101137.41;;;7.81
59339;BMP280;45117;50.960;5.500;2023-05-16T04:59:55;101138.38;;;7.99
59339;BMP280;45117;50.960;5.500;2023-05-16T05:02:22;101134.53;;;7.97
59339;BMP280;45117;50.960;5.500;2023-05-16T05:04:49;101139.47;;;7.95
59339;BMP280;45117;50.960;5.500;2023-05-16T05:07:16;101156.75;;;9.37
59339;BMP280;45117;50.960;5.500;2023-05-16T05:09:43;101145.25;;;8.75
59339;BMP280;45117;50.960;5.500;2023-05-16T05:12:10;101146.91;;;8.49
59339;BMP280;45117;50.960;5.500;2023-05-16T05:14:36;101147.94;;;8.34
59339;BMP280;45117;50.960;5.500;2023-05-16T05:17:03;101145.28;;;8.34
59339;BMP280;45117;50.960;5.500;2023-05-16T05:19:30;101146.13;;;8.45
59339;BMP280;45117;50.960;5.500;2023-05-16T05:21:56;101151.44;;;8.41
59339;BMP280;45117;50.960;5.500;2023-05-16T05:24:24;101147.03;;;8.60
59339;BMP280;45117;50.960;5.500;2023-05-16T05:26:51;101155.81;;;9.85
59339;BMP280;45117;50.960;5.500;2023-05-16T05:29:17;101158.25;;;10.32
59339;BMP280;45117;50.960;5.500;2023-05-16T05:31:44;101158.28;;;9.31
59339;BMP280;45117;50.960;5.500;2023-05-16T05:34:11;101150.22;;;10.54
59339;BMP280;45117;50.960;5.500;2023-05-16T05:36:37;101157.84;;;10.23
59339;BMP280;45117;50.960;5.500;2023-05-16T05:39:04;101158.66;;;10.59
59339;BMP280;45117;50.960;5.500;2023-05-16T05:41:32;101163.56;;;11.14
59339;BMP280;45117;50.960;5.500;2023-05-16T05:43:58;101168.13;;;13.09
59339;BMP280;45117;50.960;5.500;2023-05-16T05:46:25;101178.66;;;15.44
59339;BMP280;45117;50.960;5.500;2023-05-16T05:48:55;101171.34;;;16.10
59339;BMP280;45117;50.960;5.500;2023-05-16T05:51:21;101176.09;;;16.67
59339;BMP280;45117;50.960;5.500;2023-05-16T05:53:48;101185.47;;;17.71
59339;BMP280;45117;50.960;5.500;2023-05-16T05:56:17;101179.88;;;19.31
59339;BMP280;45117;50.960;5.500;2023-05-16T05:58:46;101181.56;;;20.06
59339;BMP280;45117;50.960;5.500;2023-05-16T06:01:13;101184.41;;;19.34
59339;BMP280;45117;50.960;5.500;2023-05-16T06:03:39;101188.44;;;20.80
59339;BMP280;45117;50.960;5.500;2023-05-16T06:06:07;101187.78;;;20.15
59339;BMP280;45117;50.960;5.500;2023-05-16T06:08:33;101194.19;;;18.48
59339;BMP280;45117;50.960;5.500;2023-05-16T06:11:00;101187.44;;;20.13
59339;BMP280;45117;50.960;5.500;2023-05-16T06:13:26;101206.88;;;20.33
59339;BMP280;45117;50.960;5.500;2023-05-16T06:15:54;101188.19;;;21.02
59339;BMP280;45117;50.960;5.500;2023-05-16T06:18:21;101190.81;;;21.62
59339;BMP280;45117;50.960;5.500;2023-05-16T06:20:47;101197.69;;;21.81
59339;BMP280;45117;50.960;5.500;2023-05-16T06:23:14;101189.91;;;22.04
59339;BMP280;45117;50.960;5.500;2023-05-16T06:25:41;101203.63;;;20.72
59339;BMP280;45117;50.960;5.500;2023-05-16T06:28:08;101210.84;;;20.93
59339;BMP280;45117;50.960;5.500;2023-05-16T06:30:34;101212.13;;;20.00
59339;BMP280;45117;50.960;5.500;2023-05-16T06:33:04;101211.19;;;19.27
59339;BMP280;45117;50.960;5.500;2023-05-16T06:35:31;101210.66;;;19.10
59339;BMP280;45117;50.960;5.500;2023-05-16T06:37:57;101209.72;;;19.93
59339;BMP280;45117;50.960;5.500;2023-05-16T06:40:23;101207.50;;;18.46
59339;BMP280;45117;50.960;5.500;2023-05-16T06:42:50;101210.66;;;18.66
59339;BMP280;45117;50.960;5.500;2023-05-16T06:45:16;101211.56;;;18.63
59339;BMP280;45117;50.960;5.500;2023-05-16T06:47:43;101208.09;;;19.47
59339;BMP280;45117;50.960;5.500;2023-05-16T06:50:11;101211.75;;;19.22
59339;BMP280;45117;50.960;5.500;2023-05-16T06:52:38;101214.06;;;19.73
59339;BMP280;45117;50.960;5.500;2023-05-16T06:55:04;101213.66;;;19.12
59339;BMP280;45117;50.960;5.500;2023-05-16T06:57:31;101222.28;;;17.34
59339;BMP280;45117;50.960;5.500;2023-05-16T06:59:57;101206.25;;;18.25
59339;BMP280;45117;50.960;5.500;2023-05-16T07:02:24;101216.72;;;19.14
59339;BMP280;45117;50.960;5.500;2023-05-16T07:04:50;101210.91;;;19.92
59339;BMP280;45117;50.960;5.500;2023-05-16T07:07:18;101221.72;;;18.94
59339;BMP280;45117;50.960;5.500;2023-05-16T07:09:45;101222.59;;;18.47
59339;BMP280;45117;50.960;5.500;2023-05-16T07:12:11;101217.75;;;18.64
59339;BMP280;45117;50.960;5.500;2023-05-16T07:14:38;101225.53;;;18.96
59339;BMP280;45117;50.960;5.500;2023-05-16T07:17:04;101221.19;;;19.08
59339;BMP280;45117;50.960;5.500;2023-05-16T07:19:31;101213.84;;;18.30
59339;BMP280;45117;50.960;5.500;2023-05-16T07:21:57;101225.63;;;18.49
59339;BMP280;45117;50.960;5.500;2023-05-16T07:24:25;101219.47;;;17.89
59339;BMP280;45117;50.960;5.500;2023-05-16T07:26:52;101219.88;;;18.13
59339;BMP280;45117;50.960;5.500;2023-05-16T07:29:18;101221.19;;;18.08
59339;BMP280;45117;50.960;5.500;2023-05-16T07:31:45;101229.28;;;16.77
59339;BMP280;45117;50.960;5.500;2023-05-16T07:34:11;101235.66;;;18.96
59339;BMP280;45117;50.960;5.500;2023-05-16T07:36:38;101226.94;;;18.23
59339;BMP280;45117;50.960;5.500;2023-05-16T07:39:04;101230.88;;;17.71
59339;BMP280;45117;50.960;5.500;2023-05-16T07:41:32;101223.66;;;15.90
59339;BMP280;45117;50.960;5.500;2023-05-16T07:43:58;101240.31;;;16.05
59339;BMP280;45117;50.960;5.500;2023-05-16T07:46:25;101232.84;;;17.70
59339;BMP280;45117;50.960;5.500;2023-05-16T07:48:51;101240.84;;;17.61
59339;BMP280;45117;50.960;5.500;2023-05-16T07:51:18;101229.34;;;17.03
59339;BMP280;45117;50.960;5.500;2023-05-16T07:53:44;101236.53;;;16.03
59339;BMP280;45117;50.960;5.500;2023-05-16T07:56:11;101239.56;;;16.53
59339;BMP280;45117;50.960;5.500;2023-05-16T07:58:40;101243.56;;;17.48
59339;BMP280;45117;50.960;5.500;2023-05-16T08:01:06;101240.03;;;16.81
59339;BMP280;45117;50.960;5.500;2023-05-16T08:03:34;101246.00;;;17.05
59339;BMP280;45117;50.960;5.500;2023-05-16T08:06:00;101236.41;;;18.05
59339;BMP280;45117;50.960;5.500;2023-05-16T08:08:27;101235.72;;;18.14
59339;BMP280;45117;50.960;5.500;2023-05-16T08:10:53;101239.28;;;18.36
59339;BMP280;45117;50.960;5.500;2023-05-16T08:13:20;101247.59;;;17.57
59339;BMP280;45117;50.960;5.500;2023-05-16T08:15:47;101245.63;;;17.03
59339;BMP280;45117;50.960;5.500;2023-05-16T08:18:14;101239.06;;;15.77
59339;BMP280;45117;50.960;5.500;2023-05-16T08:20:41;101237.69;;;15.49
59339;BMP280;45117;50.960;5.500;2023-05-16T08:23:08;101251.09;;;15.37
59339;BMP280;45117;50.960;5.500;2023-05-16T08:25:35;101236.66;;;15.23
59339;BMP280;45117;50.960;5.500;2023-05-16T08:28:01;101243.75;;;16.58
59339;BMP280;45117;50.960;5.500;2023-05-16T08:30:28;101245.25;;;15.38
59339;BMP280;45117;50.960;5.500;2023-05-16T08:32:55;101250.91;;;15.27
59339;BMP280;45117;50.960;5.500;2023-05-16T08:35:22;101242.53;;;16.43
59339;BMP280;45117;50.960;5.500;2023-05-16T08:37:48;101252.28;;;16.08
59339;BMP280;45117;50.960;5.500;2023-05-16T08:40:15;101251.78;;;15.41
59339;BMP280;45117;50.960;5.500;2023-05-16T08:42:41;101255.69;;;14.96
59339;BMP280;45117;50.960;5.500;2023-05-16T08:45:09;101248.47;;;14.66
59339;BMP280;45117;50.960;5.500;2023-05-16T08:47:38;101251.50;;;15.15
59339;BMP280;45117;50.960;5.500;2023-05-16T08:50:08;101249.16;;;16.58
59339;BMP280;45117;50.960;5.500;2023-05-16T08:52:36;101249.88;;;16.75
59339;BMP280;45117;50.960;5.500;2023-05-16T08:55:05;101242.31;;;16.21
59339;BMP280;45117;50.960;5.500;2023-05-16T08:57:34;101246.19;;;17.10
59339;BMP280;45117;50.960;5.500;2023-05-16T09:00:01;101242.88;;;16.90
59339;BMP280;45117;50.960;5.500;2023-05-16T09:02:36;101241.09;;;17.79
59339;BMP280;45117;50.960;5.500;2023-05-16T09:05:03;101235.59;;;18.30
59339;BMP280;45117;50.960;5.500;2023-05-16T09:07:31;101239.97;;;18.15
59339;BMP280;45117;50.960;5.500;2023-05-16T09:09:58;101244.25;;;17.78
59339;BMP280;45117;50.960;5.500;2023-05-16T09:12:24;101239.69;;;17.88
59339;BMP280;45117;50.960;5.500;2023-05-16T09:14:51;101227.38;;;18.21
59339;BMP280;45117;50.960;5.500;2023-05-16T09:17:17;101236.88;;;19.26
59339;BMP280;45117;50.960;5.500;2023-05-16T09:19:44;101224.66;;;18.78
59339;BMP280;45117;50.960;5.500;2023-05-16T09:22:13;101233.41;;;18.38
59339;BMP280;45117;50.960;5.500;2023-05-16T09:24:43;101242.66;;;19.28
59339;BMP280;45117;50.960;5.500;2023-05-16T09:27:10;101227.56;;;18.27
59339;BMP280;45117;50.960;5.500;2023-05-16T09:29:39;101237.28;;;17.39
59339;BMP280;45117;50.960;5.500;2023-05-16T09:32:10;101241.91;;;18.62
59339;BMP280;45117;50.960;5.500;2023-05-16T09:34:38;101243.72;;;17.83
59339;BMP280;45117;50.960;5.500;2023-05-16T09:37:05;101236.47;;;17.13
59339;BMP280;45117;50.960;5.500;2023-05-16T09:39:31;101227.22;;;16.52
59339;BMP280;45117;50.960;5.500;2023-05-16T09:41:59;101245.34;;;17.68
59339;BMP280;45117;50.960;5.500;2023-05-16T09:44:26;101248.53;;;18.61
59339;BMP280;45117;50.960;5.500;2023-05-16T09:46:53;101237.94;;;17.56
59339;BMP280;45117;50.960;5.500;2023-05-16T09:49:19;101236.34;;;17.16
59339;BMP280;45117;50.960;5.500;2023-05-16T09:51:46;101244.66;;;16.35
59339;BMP280;45117;50.960;5.500;2023-05-16T09:54:12;101242.81;;;17.48
59339;BMP280;45117;50.960;5.500;2023-05-16T09:56:47;101237.47;;;17.95
59339;BMP280;45117;50.960;5.500;2023-05-16T09:59:16;101239.19;;;17.26
59339;BMP280;45117;50.960;5.500;2023-05-16T10:01:42;101230.97;;;16.26
59339;BMP280;45117;50.960;5.500;2023-05-16T10:04:09;101239.25;;;17.89
59339;BMP280;45117;50.960;5.500;2023-05-16T10:06:38;101242.03;;;18.58
59339;BMP280;45117;50.960;5.500;2023-05-16T10:09:06;101238.00;;;18.16
59339;BMP280;45117;50.960;5.500;2023-05-16T10:11:33;101233.91;;;17.35
59339;BMP280;45117;50.960;5.500;2023-05-16T10:14:00;101244.22;;;17.53
59339;BMP280;45117;50.960;5.500;2023-05-16T10:16:29;101248.59;;;17.63
59339;BMP280;45117;50.960;5.500;2023-05-16T10:18:56;101235.00;;;16.67
59339;BMP280;45117;50.960;5.500;2023-05-16T10:21:24;101226.88;;;16.50
59339;BMP280;45117;50.960;5.500;2023-05-16T10:23:52;101226.63;;;16.61
59339;BMP280;45117;50.960;5.500;2023-05-16T10:26:21;101231.22;;;15.99
59339;BMP280;45117;50.960;5.500;2023-05-16T10:28:49;101244.28;;;16.37
59339;BMP280;45117;50.960;5.500;2023-05-16T10:31:17;101238.03;;;17.39
59339;BMP280;45117;50.960;5.500;2023-05-16T10:33:46;101229.00;;;17.30
59339;BMP280;45117;50.960;5.500;2023-05-16T10:36:13;101237.84;;;17.59
59339;BMP280;45117;50.960;5.500;2023-05-16T10:38:41;101224.31;;;17.17
59339;BMP280;45117;50.960;5.500;2023-05-16T10:41:09;101228.91;;;16.92
59339;BMP280;45117;50.960;5.500;2023-05-16T10:43:36;101225.69;;;16.80
59339;BMP280;45117;50.960;5.500;2023-05-16T10:46:04;101225.06;;;16.60
59339;BMP280;45117;50.960;5.500;2023-05-16T10:48:31;101227.91;;;16.08
59339;BMP280;45117;50.960;5.500;2023-05-16T10:51:00;101225.69;;;17.64
59339;BMP280;45117;50.960;5.500;2023-05-16T10:53:32;101218.44;;;18.21
59339;BMP280;45117;50.960;5.500;2023-05-16T10:56:09;101217.78;;;18.95
59339;BMP280;45117;50.960;5.500;2023-05-16T10:58:43;101219.00;;;19.47
59339;BMP280;45117;50.960;5.500;2023-05-16T11:01:23;101219.03;;;19.56
59339;BMP280;45117;50.960;5.500;2023-05-16T11:04:06;101224.88;;;19.94
59339;BMP280;45117;50.960;5.500;2023-05-16T11:06:43;101230.72;;;18.82
59339;BMP280;45117;50.960;5.500;2023-05-16T11:09:24;101233.72;;;19.27
59339;BMP280;45117;50.960;5.500;2023-05-16T11:11:59;101229.47;;;18.39
59339;BMP280;45117;50.960;5.500;2023-05-16T11:14:28;101237.88;;;19.10
59339;BMP280;45117;50.960;5.500;2023-05-16T11:17:05;101218.53;;;19.57
59339;BMP280;45117;50.960;5.500;2023-05-16T11:19:34;101221.16;;;18.55
59339;BMP280;45117;50.960;5.500;2023-05-16T11:22:10;101233.38;;;17.78
59339;BMP280;45117;50.960;5.500;2023-05-16T11:24:48;101228.38;;;17.76
59339;BMP280;45117;50.960;5.500;2023-05-16T11:27:20;101223.00;;;17.22
59339;BMP280;45117;50.960;5.500;2023-05-16T11:29:47;101228.53;;;16.90
59339;BMP280;45117;50.960;5.500;2023-05-16T11:32:18;101221.75;;;16.69
59339;BMP280;45117;50.960;5.500;2023-05-16T11:34:45;101217.47;;;16.55
59339;BMP280;45117;50.960;5.500;2023-05-16T11:37:13;101231.25;;;16.61
59339;BMP280;45117;50.960;5.500;2023-05-16T11:39:40;101224.41;;;16.40
59339;BMP280;45117;50.960;5.500;2023-05-16T11:42:07;101236.13;;;16.20
59339;BMP280;45117;50.960;5.500;2023-05-16T11:44:34;101227.19;;;17.10
59339;BMP280;45117;50.960;5.500;2023-05-16T11:47:00;101227.16;;;18.03
59339;BMP280;45117;50.960;5.500;2023-05-16T11:49:27;101224.09;;;18.48
59339;BMP280;45117;50.960;5.500;2023-05-16T11:51:54;101221.34;;;18.83
59339;BMP280;45117;50.960;5.500;2023-05-16T11:54:23;101220.00;;;19.40
59339;BMP280;45117;50.960;5.500;2023-05-16T11:56:50;101224.50;;;19.03
59339;BMP280;45117;50.960;5.500;2023-05-16T11:59:17;101221.72;;;19.47
59339;BMP280;45117;50.960;5.500;2023-05-16T12:01:45;101216.22;;;19.78
59339;BMP280;45117;50.960;5.500;2023-05-16T12:04:14;101205.41;;;18.50
59339;BMP280;45117;50.960;5.500;2023-05-16T12:06:42;101209.78;;;18.13
59339;BMP280;45117;50.960;5.500;2023-05-16T12:09:11;101219.56;;;17.34
59339;BMP280;45117;50.960;5.500;2023-05-16T12:11:40;101220.84;;;17.17
59339;BMP280;45117;50.960;5.500;2023-05-16T12:14:10;101217.06;;;16.69
59339;BMP280;45117;50.960;5.500;2023-05-16T12:16:37;101224.44;;;18.03
59339;BMP280;45117;50.960;5.500;2023-05-16T12:19:06;101225.38;;;18.56
59339;BMP280;45117;50.960;5.500;2023-05-16T12:21:33;101228.28;;;17.80
59339;BMP280;45117;50.960;5.500;2023-05-16T12:24:00;101219.75;;;17.14
59339;BMP280;45117;50.960;5.500;2023-05-16T12:26:28;101228.09;;;17.74
59339;BMP280;45117;50.960;5.500;2023-05-16T12:28:57;101223.03;;;17.98
59339;BMP280;45117;50.960;5.500;2023-05-16T12:31:25;101222.72;;;17.96
59339;BMP280;45117;50.960;5.500;2023-05-16T12:33:52;101220.78;;;17.97
59339;BMP280;45117;50.960;5.500;2023-05-16T12:36:18;101220.88;;;19.28
59339;BMP280;45117;50.960;5.500;2023-05-16T12:38:45;101222.59;;;19.44
59339;BMP280;45117;50.960;5.500;2023-05-16T12:41:16;101237.94;;;18.97
59339;BMP280;45117;50.960;5.500;2023-05-16T12:43:43;101217.91;;;18.48
59339;BMP280;45117;50.960;5.500;2023-05-16T12:46:11;101229.34;;;19.30
59339;BMP280;45117;50.960;5.500;2023-05-16T12:48:37;101216.34;;;18.81
59339;BMP280;45117;50.960;5.500;2023-05-16T12:51:10;101224.88;;;18.01
59339;BMP280;45117;50.960;5.500;2023-05-16T12:53:40;101234.47;;;17.68
59339;BMP280;45117;50.960;5.500;2023-05-16T12:56:07;101219.69;;;17.94
59339;BMP280;45117;50.960;5.500;2023-05-16T12:58:34;101217.19;;;17.62
59339;BMP280;45117;50.960;5.500;2023-05-16T13:01:01;101222.41;;;17.56
59339;BMP280;45117;50.960;5.500;2023-05-16T13:03:29;101218.41;;;17.06
59339;BMP280;45117;50.960;5.500;2023-05-16T13:05:55;101234.47;;;16.72
59339;BMP280;45117;50.960;5.500;2023-05-16T13:08:22;101228.31;;;16.39
59339;BMP280;45117;50.960;5.500;2023-05-16T13:10:48;101233.66;;;16.26
59339;BMP280;45117;50.960;5.500;2023-05-16T13:13:15;101244.78;;;16.15
59339;BMP280;45117;50.960;5.500;2023-05-16T13:15:43;101241.72;;;16.30
59339;BMP280;45117;50.960;5.500;2023-05-16T13:18:09;101238.38;;;16.54
59339;BMP280;45117;50.960;5.500;2023-05-16T13:20:37;101233.69;;;17.00
59339;BMP280;45117;50.960;5.500;2023-05-16T13:23:04;101232.44;;;17.17
59339;BMP280;45117;50.960;5.500;2023-05-16T13:25:31;101232.66;;;16.65
59339;BMP280;45117;50.960;5.500;2023-05-16T13:27:58;101232.72;;;16.49
59339;BMP280;45117;50.960;5.500;2023-05-16T13:30:25;101236.13;;;16.37
59339;BMP280;45117;50.960;5.500;2023-05-16T13:32:51;101233.72;;;16.55
59339;BMP280;45117;50.960;5.500;2023-05-16T13:35:17;101244.28;;;16.37
59339;BMP280;45117;50.960;5.500;2023-05-16T13:37:45;101244.06;;;16.44
59339;BMP280;45117;50.960;5.500;2023-05-16T13:40:12;101242.34;;;16.66
59339;BMP280;45117;50.960;5.500;2023-05-16T13:42:38;101251.50;;;16.72
59339;BMP280;45117;50.960;5.500;2023-05-16T13:45:05;101245.19;;;16.30
59339;BMP280;45117;50.960;5.500;2023-05-16T13:47:32;101247.19;;;16.59
59339;BMP280;45117;50.960;5.500;2023-05-16T13:49:59;101244.09;;;16.89
59339;BMP280;45117;50.960;5.500;2023-05-16T13:52:30;101256.53;;;16.58
59339;BMP280;45117;50.960;5.500;2023-05-16T13:54:58;101245.84;;;16.34
59339;BMP280;45117;50.960;5.500;2023-05-16T13:57:24;101270.25;;;16.34
59339;BMP280;45117;50.960;5.500;2023-05-16T13:59:51;101258.81;;;15.94
59339;BMP280;45117;50.960;5.500;2023-05-16T14:02:18;101267.78;;;15.51
59339;BMP280;45117;50.960;5.500;2023-05-16T14:04:45;101275.19;;;15.67